sensor_id;sensor_type;location;lat;lon;timestamp;P1;durP1;ratioP1;P2;durP2;ratioP2
76675;SDS011;65593;55.840;37.574;2022-12-08T00:04:45;20.90;;;7.40;;
76675;SDS011;65593;55.840;37.574;2022-12-08T00:10:05;15.60;;;7.18;;
76675;SDS011;65593;55.840;37.574;2022-12-08T00:15:06;14.93;;;7.25;;
76675;SDS011;65593;55.840;37.574;2022-12-08T00:20:07;15.05;;;7.25;;
76675;SDS011;65593;55.840;37.574;2022-12-08T00:25:08;15.63;;;8.27;;
76675;SDS011;65593;55.840;37.574;2022-12-08T00:30:08;14.90;;;6.00;;
76675;SDS011;65593;55.840;37.574;2022-12-08T00:35:09;15.70;;;6.93;;
76675;SDS011;65593;55.840;37.574;2022-12-08T00:40:10;15.40;;;7.50;;
76675;SDS011;65593;55.840;37.574;2022-12-08T00:45:11;16.05;;;7.10;;
76675;SDS011;65593;55.840;37.574;2022-12-08T00:50:11;16.53;;;6.63;;
76675;SDS011;65593;55.840;37.574;2022-12-08T00:55:12;15.32;;;6.75;;
76675;SDS011;65593;55.840;37.574;2022-12-08T01:00:13;14.43;;;6.22;;
76675;SDS011;65593;55.840;37.574;2022-12-08T01:05:14;13.63;;;6.13;;
76675;SDS011;65593;55.840;37.574;2022-12-08T01:10:15;17.55;;;6.38;;
76675;SDS011;65593;55.840;37.574;2022-12-08T01:15:16;12.33;;;6.43;;
76675;SDS011;65593;55.840;37.574;2022-12-08T01:20:16;16.55;;;7.28;;
76675;SDS011;65593;55.840;37.574;2022-12-08T01:25:17;17.58;;;7.07;;
76675;SDS011;65593;55.840;37.574;2022-12-08T01:30:18;15.70;;;7.20;;
76675;SDS011;65593;55.840;37.574;2022-12-08T01:35:19;14.55;;;7.60;;
76675;SDS011;65593;55.840;37.574;2022-12-08T01:40:20;16.37;;;7.23;;
76675;SDS011;65593;55.840;37.574;2022-12-08T01:45:24;14.43;;;6.83;;
76675;SDS011;65593;55.840;37.574;2022-12-08T01:50:26;16.27;;;6.97;;
76675;SDS011;65593;55.840;37.574;2022-12-08T01:55:29;13.70;;;6.80;;
76675;SDS011;65593;55.840;37.574;2022-12-08T02:00:32;13.55;;;6.25;;
76675;SDS011;65593;55.840;37.574;2022-12-08T02:05:33;13.23;;;7.43;;
76675;SDS011;65593;55.840;37.574;2022-12-08T02:10:38;14.55;;;6.78;;
76675;SDS011;65593;55.840;37.574;2022-12-08T02:21:02;14.52;;;6.43;;
76675;SDS011;65593;55.840;37.574;2022-12-08T02:37:19;21.77;;;7.50;;
76675;SDS011;65593;55.840;37.574;2022-12-08T02:47:46;13.88;;;6.97;;
76675;SDS011;65593;55.840;37.574;2022-12-08T02:52:47;15.00;;;7.60;;
76675;SDS011;65593;55.840;37.574;2022-12-08T03:03:14;14.00;;;6.95;;
76675;SDS011;65593;55.840;37.574;2022-12-08T03:13:39;14.27;;;7.38;;
76675;SDS011;65593;55.840;37.574;2022-12-08T03:18:46;19.03;;;7.50;;
76675;SDS011;65593;55.840;37.574;2022-12-08T03:23:50;12.02;;;7.05;;
76675;SDS011;65593;55.840;37.574;2022-12-08T03:28:54;13.25;;;6.68;;
76675;SDS011;65593;55.840;37.574;2022-12-08T03:33:55;12.57;;;7.07;;
76675;SDS011;65593;55.840;37.574;2022-12-08T03:38:58;13.80;;;6.43;;
76675;SDS011;65593;55.840;37.574;2022-12-08T03:43:59;14.90;;;7.67;;
76675;SDS011;65593;55.840;37.574;2022-12-08T03:48:59;17.83;;;7.82;;
76675;SDS011;65593;55.840;37.574;2022-12-08T03:54:00;21.65;;;7.53;;
76675;SDS011;65593;55.840;37.574;2022-12-08T03:59:01;26.07;;;8.50;;
76675;SDS011;65593;55.840;37.574;2022-12-08T04:04:02;19.67;;;7.50;;
76675;SDS011;65593;55.840;37.574;2022-12-08T04:09:03;15.68;;;8.23;;
76675;SDS011;65593;55.840;37.574;2022-12-08T04:14:04;23.03;;;8.60;;
76675;SDS011;65593;55.840;37.574;2022-12-08T04:19:04;24.17;;;8.23;;
76675;SDS011;65593;55.840;37.574;2022-12-08T04:24:05;29.00;;;9.60;;
76675;SDS011;65593;55.840;37.574;2022-12-08T04:29:06;30.30;;;9.77;;
76675;SDS011;65593;55.840;37.574;2022-12-08T04:34:06;25.00;;;9.82;;
76675;SDS011;65593;55.840;37.574;2022-12-08T04:39:08;19.23;;;7.60;;
76675;SDS011;65593;55.840;37.574;2022-12-08T04:44:09;19.60;;;7.60;;
76675;SDS011;65593;55.840;37.574;2022-12-08T04:49:09;22.65;;;8.23;;
76675;SDS011;65593;55.840;37.574;2022-12-08T04:54:10;23.47;;;9.17;;
76675;SDS011;65593;55.840;37.574;2022-12-08T04:59:10;23.00;;;7.30;;
76675;SDS011;65593;55.840;37.574;2022-12-08T05:04:11;21.23;;;8.33;;
76675;SDS011;65593;55.840;37.574;2022-12-08T05:09:12;14.27;;;7.03;;
76675;SDS011;65593;55.840;37.574;2022-12-08T05:14:14;17.15;;;7.60;;
76675;SDS011;65593;55.840;37.574;2022-12-08T05:19:16;20.85;;;7.45;;
76675;SDS011;65593;55.840;37.574;2022-12-08T05:24:17;19.97;;;7.13;;
76675;SDS011;65593;55.840;37.574;2022-12-08T05:29:17;18.23;;;7.00;;
76675;SDS011;65593;55.840;37.574;2022-12-08T05:34:18;17.37;;;7.43;;
76675;SDS011;65593;55.840;37.574;2022-12-08T05:39:18;17.70;;;7.28;;
76675;SDS011;65593;55.840;37.574;2022-12-08T05:44:19;19.50;;;7.03;;
76675;SDS011;65593;55.840;37.574;2022-12-08T05:49:20;20.07;;;6.30;;
76675;SDS011;65593;55.840;37.574;2022-12-08T05:54:20;17.60;;;7.07;;
76675;SDS011;65593;55.840;37.574;2022-12-08T05:59:21;13.35;;;6.10;;
76675;SDS011;65593;55.840;37.574;2022-12-08T06:04:21;17.60;;;6.50;;
76675;SDS011;65593;55.840;37.574;2022-12-08T06:09:22;16.53;;;6.63;;
76675;SDS011;65593;55.840;37.574;2022-12-08T06:14:23;16.00;;;6.53;;
76675;SDS011;65593;55.840;37.574;2022-12-08T06:19:23;16.90;;;6.32;;
76675;SDS011;65593;55.840;37.574;2022-12-08T06:24:24;18.80;;;7.07;;
76675;SDS011;65593;55.840;37.574;2022-12-08T06:29:24;12.13;;;5.90;;
76675;SDS011;65593;55.840;37.574;2022-12-08T06:34:25;17.47;;;6.77;;
76675;SDS011;65593;55.840;37.574;2022-12-08T06:39:26;18.42;;;6.90;;
76675;SDS011;65593;55.840;37.574;2022-12-08T06:44:26;13.23;;;6.63;;
76675;SDS011;65593;55.840;37.574;2022-12-08T06:49:27;19.40;;;7.33;;
76675;SDS011;65593;55.840;37.574;2022-12-08T06:54:27;15.37;;;7.80;;
76675;SDS011;65593;55.840;37.574;2022-12-08T06:59:28;22.20;;;7.30;;
76675;SDS011;65593;55.840;37.574;2022-12-08T07:04:29;19.75;;;6.53;;
76675;SDS011;65593;55.840;37.574;2022-12-08T07:09:29;18.77;;;6.77;;
76675;SDS011;65593;55.840;37.574;2022-12-08T07:14:30;13.73;;;6.63;;
76675;SDS011;65593;55.840;37.574;2022-12-08T07:19:31;19.40;;;6.43;;
76675;SDS011;65593;55.840;37.574;2022-12-08T07:24:32;15.95;;;6.38;;
76675;SDS011;65593;55.840;37.574;2022-12-08T07:29:32;14.57;;;6.07;;
76675;SDS011;65593;55.840;37.574;2022-12-08T07:34:33;21.00;;;6.80;;
76675;SDS011;65593;55.840;37.574;2022-12-08T07:39:33;15.13;;;6.28;;
76675;SDS011;65593;55.840;37.574;2022-12-08T07:44:34;18.37;;;6.60;;
76675;SDS011;65593;55.840;37.574;2022-12-08T07:49:35;13.53;;;6.13;;
76675;SDS011;65593;55.840;37.574;2022-12-08T07:54:35;14.43;;;6.60;;
76675;SDS011;65593;55.840;37.574;2022-12-08T07:59:36;15.77;;;6.67;;
76675;SDS011;65593;55.840;37.574;2022-12-08T08:04:36;16.02;;;7.15;;
76675;SDS011;65593;55.840;37.574;2022-12-08T08:09:37;12.97;;;7.10;;
76675;SDS011;65593;55.840;37.574;2022-12-08T08:14:38;15.33;;;7.10;;
76675;SDS011;65593;55.840;37.574;2022-12-08T08:19:38;15.90;;;7.13;;
76675;SDS011;65593;55.840;37.574;2022-12-08T08:24:39;17.73;;;6.80;;
76675;SDS011;65593;55.840;37.574;2022-12-08T08:29:39;19.63;;;7.40;;
76675;SDS011;65593;55.840;37.574;2022-12-08T08:34:40;14.77;;;7.13;;
76675;SDS011;65593;55.840;37.574;2022-12-08T08:39:41;20.00;;;7.70;;
76675;SDS011;65593;55.840;37.574;2022-12-08T08:44:42;15.38;;;6.97;;
76675;SDS011;65593;55.840;37.574;2022-12-08T08:49:42;14.07;;;7.27;;
76675;SDS011;65593;55.840;37.574;2022-12-08T08:54:43;16.57;;;6.93;;
76675;SDS011;65593;55.840;37.574;2022-12-08T08:59:43;18.27;;;8.48;;
76675;SDS011;65593;55.840;37.574;2022-12-08T09:04:44;15.65;;;6.80;;
76675;SDS011;65593;55.840;37.574;2022-12-08T09:09:45;14.80;;;6.93;;
76675;SDS011;65593;55.840;37.574;2022-12-08T09:14:45;17.97;;;7.63;;
76675;SDS011;65593;55.840;37.574;2022-12-08T09:19:46;19.88;;;7.60;;
76675;SDS011;65593;55.840;37.574;2022-12-08T09:24:47;17.37;;;7.83;;
76675;SDS011;65593;55.840;37.574;2022-12-08T09:29:47;18.90;;;7.30;;
76675;SDS011;65593;55.840;37.574;2022-12-08T09:34:48;16.37;;;7.27;;
76675;SDS011;65593;55.840;37.574;2022-12-08T09:39:48;19.53;;;7.63;;
76675;SDS011;65593;55.840;37.574;2022-12-08T09:44:51;16.13;;;7.18;;
76675;SDS011;65593;55.840;37.574;2022-12-08T09:55:36;17.60;;;8.10;;
76675;SDS011;65593;55.840;37.574;2022-12-08T10:00:41;14.13;;;7.13;;
76675;SDS011;65593;55.840;37.574;2022-12-08T10:11:26;19.40;;;7.28;;
76675;SDS011;65593;55.840;37.574;2022-12-08T10:16:40;18.48;;;8.68;;
76675;SDS011;65593;55.840;37.574;2022-12-08T10:21:46;13.00;;;7.40;;
76675;SDS011;65593;55.840;37.574;2022-12-08T10:26:48;16.50;;;6.75;;
76675;SDS011;65593;55.840;37.574;2022-12-08T10:31:49;16.23;;;7.80;;
76675;SDS011;65593;55.840;37.574;2022-12-08T10:36:57;14.57;;;7.73;;
76675;SDS011;65593;55.840;37.574;2022-12-08T10:47:11;19.88;;;7.93;;
76675;SDS011;65593;55.840;37.574;2022-12-08T10:52:21;16.63;;;7.22;;
76675;SDS011;65593;55.840;37.574;2022-12-08T10:57:22;18.80;;;8.27;;
76675;SDS011;65593;55.840;37.574;2022-12-08T11:02:24;15.23;;;6.90;;
76675;SDS011;65593;55.840;37.574;2022-12-08T11:07:25;18.80;;;7.80;;
76675;SDS011;65593;55.840;37.574;2022-12-08T11:12:27;16.05;;;7.30;;
76675;SDS011;65593;55.840;37.574;2022-12-08T11:17:36;15.43;;;7.55;;
76675;SDS011;65593;55.840;37.574;2022-12-08T11:22:41;17.37;;;7.37;;
76675;SDS011;65593;55.840;37.574;2022-12-08T11:27:44;16.10;;;7.25;;
76675;SDS011;65593;55.840;37.574;2022-12-08T11:32:48;19.23;;;8.23;;
76675;SDS011;65593;55.840;37.574;2022-12-08T11:37:53;13.90;;;7.43;;
76675;SDS011;65593;55.840;37.574;2022-12-08T11:54:12;17.17;;;7.63;;
76675;SDS011;65593;55.840;37.574;2022-12-08T11:59:33;16.13;;;8.20;;
76675;SDS011;65593;55.840;37.574;2022-12-08T12:04:46;16.90;;;6.80;;
76675;SDS011;65593;55.840;37.574;2022-12-08T12:25:58;20.90;;;7.67;;
76675;SDS011;65593;55.840;37.574;2022-12-08T12:31:10;18.38;;;7.95;;
76675;SDS011;65593;55.840;37.574;2022-12-08T12:36:14;17.70;;;7.82;;
76675;SDS011;65593;55.840;37.574;2022-12-08T12:41:15;16.60;;;8.10;;
76675;SDS011;65593;55.840;37.574;2022-12-08T12:56:46;17.75;;;8.02;;
76675;SDS011;65593;55.840;37.574;2022-12-08T13:18:17;20.65;;;7.68;;
76675;SDS011;65593;55.840;37.574;2022-12-08T13:28:27;17.38;;;8.35;;
76675;SDS011;65593;55.840;37.574;2022-12-08T13:33:50;19.27;;;7.57;;
76675;SDS011;65593;55.840;37.574;2022-12-08T13:38:52;15.37;;;7.40;;
76675;SDS011;65593;55.840;37.574;2022-12-08T13:44:00;14.98;;;7.85;;
76675;SDS011;65593;55.840;37.574;2022-12-08T13:49:05;15.63;;;7.68;;
76675;SDS011;65593;55.840;37.574;2022-12-08T13:59:30;17.63;;;8.32;;
76675;SDS011;65593;55.840;37.574;2022-12-08T14:04:33;16.67;;;7.97;;
76675;SDS011;65593;55.840;37.574;2022-12-08T14:09:34;16.75;;;8.07;;
76675;SDS011;65593;55.840;37.574;2022-12-08T14:14:40;22.17;;;8.32;;
76675;SDS011;65593;55.840;37.574;2022-12-08T14:19:51;17.90;;;8.85;;
76675;SDS011;65593;55.840;37.574;2022-12-08T14:24:56;17.70;;;8.13;;
76675;SDS011;65593;55.840;37.574;2022-12-08T14:30:05;22.42;;;8.75;;
76675;SDS011;65593;55.840;37.574;2022-12-08T14:35:22;15.25;;;7.90;;
76675;SDS011;65593;55.840;37.574;2022-12-08T14:50:42;14.53;;;7.53;;
76675;SDS011;65593;55.840;37.574;2022-12-08T14:55:53;19.40;;;8.80;;
76675;SDS011;65593;55.840;37.574;2022-12-08T15:00:57;16.30;;;8.10;;
76675;SDS011;65593;55.840;37.574;2022-12-08T15:06:02;19.67;;;9.10;;
76675;SDS011;65593;55.840;37.574;2022-12-08T15:16:26;23.00;;;8.20;;
76675;SDS011;65593;55.840;37.574;2022-12-08T15:21:32;20.02;;;8.48;;
76675;SDS011;65593;55.840;37.574;2022-12-08T15:26:54;22.70;;;8.73;;
76675;SDS011;65593;55.840;37.574;2022-12-08T15:31:56;21.27;;;9.48;;
76675;SDS011;65593;55.840;37.574;2022-12-08T15:36:58;17.10;;;6.73;;
76675;SDS011;65593;55.840;37.574;2022-12-08T15:41:59;14.35;;;5.80;;
76675;SDS011;65593;55.840;37.574;2022-12-08T15:47:00;15.47;;;6.90;;
76675;SDS011;65593;55.840;37.574;2022-12-08T15:52:01;15.68;;;7.05;;
76675;SDS011;65593;55.840;37.574;2022-12-08T15:57:01;15.87;;;7.53;;
76675;SDS011;65593;55.840;37.574;2022-12-08T16:02:02;14.73;;;7.67;;
76675;SDS011;65593;55.840;37.574;2022-12-08T16:07:03;14.27;;;7.00;;
76675;SDS011;65593;55.840;37.574;2022-12-08T16:12:04;19.40;;;9.57;;
76675;SDS011;65593;55.840;37.574;2022-12-08T16:17:26;25.05;;;11.25;;
76675;SDS011;65593;55.840;37.574;2022-12-08T16:22:30;28.35;;;12.88;;
76675;SDS011;65593;55.840;37.574;2022-12-08T16:27:32;26.90;;;13.83;;
76675;SDS011;65593;55.840;37.574;2022-12-08T16:32:36;29.65;;;12.80;;
76675;SDS011;65593;55.840;37.574;2022-12-08T16:37:37;32.80;;;14.37;;
76675;SDS011;65593;55.840;37.574;2022-12-08T16:42:37;30.30;;;13.77;;
76675;SDS011;65593;55.840;37.574;2022-12-08T16:47:46;34.22;;;15.68;;
76675;SDS011;65593;55.840;37.574;2022-12-08T16:53:04;41.65;;;19.27;;
76675;SDS011;65593;55.840;37.574;2022-12-08T16:58:06;45.20;;;20.30;;
76675;SDS011;65593;55.840;37.574;2022-12-08T17:03:07;44.67;;;21.00;;
76675;SDS011;65593;55.840;37.574;2022-12-08T17:08:07;59.33;;;27.85;;
76675;SDS011;65593;55.840;37.574;2022-12-08T17:13:08;61.67;;;26.00;;
76675;SDS011;65593;55.840;37.574;2022-12-08T17:18:09;56.45;;;24.05;;
76675;SDS011;65593;55.840;37.574;2022-12-08T17:23:11;57.67;;;25.07;;
76675;SDS011;65593;55.840;37.574;2022-12-08T17:28:11;46.83;;;22.67;;
76675;SDS011;65593;55.840;37.574;2022-12-08T17:33:12;50.63;;;23.80;;
76675;SDS011;65593;55.840;37.574;2022-12-08T17:38:12;73.60;;;28.88;;
76675;SDS011;65593;55.840;37.574;2022-12-08T17:43:13;75.00;;;31.45;;
76675;SDS011;65593;55.840;37.574;2022-12-08T17:48:14;47.77;;;23.03;;
76675;SDS011;65593;55.840;37.574;2022-12-08T17:53:14;47.50;;;23.07;;
76675;SDS011;65593;55.840;37.574;2022-12-08T17:58:15;54.28;;;24.50;;
76675;SDS011;65593;55.840;37.574;2022-12-08T18:03:16;57.23;;;25.60;;
76675;SDS011;65593;55.840;37.574;2022-12-08T18:08:17;42.67;;;19.20;;
76675;SDS011;65593;55.840;37.574;2022-12-08T18:13:17;45.30;;;21.63;;
76675;SDS011;65593;55.840;37.574;2022-12-08T18:18:18;53.83;;;24.50;;
76675;SDS011;65593;55.840;37.574;2022-12-08T18:23:19;48.63;;;22.13;;
76675;SDS011;65593;55.840;37.574;2022-12-08T18:28:20;43.70;;;21.40;;
76675;SDS011;65593;55.840;37.574;2022-12-08T18:33:20;53.93;;;26.73;;
76675;SDS011;65593;55.840;37.574;2022-12-08T18:38:21;55.30;;;26.17;;
76675;SDS011;65593;55.840;37.574;2022-12-08T18:43:22;50.67;;;25.15;;
76675;SDS011;65593;55.840;37.574;2022-12-08T18:48:22;52.77;;;26.03;;
76675;SDS011;65593;55.840;37.574;2022-12-08T18:53:23;59.97;;;29.20;;
76675;SDS011;65593;55.840;37.574;2022-12-08T18:58:23;53.97;;;24.77;;
76675;SDS011;65593;55.840;37.574;2022-12-08T19:03:24;50.17;;;22.03;;
76675;SDS011;65593;55.840;37.574;2022-12-08T19:08:24;47.08;;;21.70;;
76675;SDS011;65593;55.840;37.574;2022-12-08T19:13:25;47.45;;;22.55;;
76675;SDS011;65593;55.840;37.574;2022-12-08T19:18:26;43.60;;;21.70;;
76675;SDS011;65593;55.840;37.574;2022-12-08T19:23:26;48.10;;;23.13;;
76675;SDS011;65593;55.840;37.574;2022-12-08T19:28:28;45.40;;;21.92;;
76675;SDS011;65593;55.840;37.574;2022-12-08T19:33:28;49.00;;;22.93;;
76675;SDS011;65593;55.840;37.574;2022-12-08T19:38:29;42.43;;;19.50;;
76675;SDS011;65593;55.840;37.574;2022-12-08T19:43:29;42.78;;;20.92;;
76675;SDS011;65593;55.840;37.574;2022-12-08T19:48:49;50.30;;;23.77;;
76675;SDS011;65593;55.840;37.574;2022-12-08T19:53:49;58.67;;;26.50;;
76675;SDS011;65593;55.840;37.574;2022-12-08T19:58:50;45.30;;;21.58;;
76675;SDS011;65593;55.840;37.574;2022-12-08T20:03:50;41.50;;;20.87;;
76675;SDS011;65593;55.840;37.574;2022-12-08T20:08:51;37.93;;;18.47;;
76675;SDS011;65593;55.840;37.574;2022-12-08T20:13:53;44.65;;;19.83;;
76675;SDS011;65593;55.840;37.574;2022-12-08T20:18:54;45.53;;;19.23;;
76675;SDS011;65593;55.840;37.574;2022-12-08T20:23:54;43.55;;;20.67;;
76675;SDS011;65593;55.840;37.574;2022-12-08T20:28:55;39.10;;;20.23;;
76675;SDS011;65593;55.840;37.574;2022-12-08T20:33:56;44.00;;;18.67;;
76675;SDS011;65593;55.840;37.574;2022-12-08T20:38:56;31.10;;;15.23;;
76675;SDS011;65593;55.840;37.574;2022-12-08T20:43:57;32.70;;;16.85;;
76675;SDS011;65593;55.840;37.574;2022-12-08T20:48:58;33.53;;;15.77;;
76675;SDS011;65593;55.840;37.574;2022-12-08T20:54:00;35.97;;;15.90;;
76675;SDS011;65593;55.840;37.574;2022-12-08T20:59:01;27.80;;;13.83;;
76675;SDS011;65593;55.840;37.574;2022-12-08T21:04:01;28.93;;;14.33;;
76675;SDS011;65593;55.840;37.574;2022-12-08T21:09:02;36.00;;;15.27;;
76675;SDS011;65593;55.840;37.574;2022-12-08T21:14:03;27.65;;;13.18;;
76675;SDS011;65593;55.840;37.574;2022-12-08T21:19:04;27.67;;;13.03;;
76675;SDS011;65593;55.840;37.574;2022-12-08T21:24:05;33.53;;;14.98;;
76675;SDS011;65593;55.840;37.574;2022-12-08T21:29:06;28.90;;;13.65;;
76675;SDS011;65593;55.840;37.574;2022-12-08T21:34:08;30.87;;;14.90;;
76675;SDS011;65593;55.840;37.574;2022-12-08T21:39:09;31.83;;;13.82;;
76675;SDS011;65593;55.840;37.574;2022-12-08T21:44:12;35.72;;;14.23;;
76675;SDS011;65593;55.840;37.574;2022-12-08T21:49:14;27.50;;;13.52;;
76675;SDS011;65593;55.840;37.574;2022-12-08T21:54:15;35.33;;;15.13;;
76675;SDS011;65593;55.840;37.574;2022-12-08T21:59:16;32.97;;;15.00;;
76675;SDS011;65593;55.840;37.574;2022-12-08T22:04:17;32.93;;;14.53;;
76675;SDS011;65593;55.840;37.574;2022-12-08T22:09:20;35.67;;;15.93;;
76675;SDS011;65593;55.840;37.574;2022-12-08T22:14:21;33.40;;;14.83;;
76675;SDS011;65593;55.840;37.574;2022-12-08T22:19:21;33.37;;;15.03;;
76675;SDS011;65593;55.840;37.574;2022-12-08T22:24:23;31.25;;;14.52;;
76675;SDS011;65593;55.840;37.574;2022-12-08T22:29:24;29.73;;;14.02;;
76675;SDS011;65593;55.840;37.574;2022-12-08T22:34:25;33.20;;;13.57;;
76675;SDS011;65593;55.840;37.574;2022-12-08T22:39:26;31.00;;;13.77;;
76675;SDS011;65593;55.840;37.574;2022-12-08T22:44:27;31.60;;;13.82;;
76675;SDS011;65593;55.840;37.574;2022-12-08T22:49:30;29.93;;;15.33;;
76675;SDS011;65593;55.840;37.574;2022-12-08T22:54:31;32.78;;;15.25;;
76675;SDS011;65593;55.840;37.574;2022-12-08T22:59:32;40.83;;;17.23;;
76675;SDS011;65593;55.840;37.574;2022-12-08T23:04:33;32.50;;;15.18;;
76675;SDS011;65593;55.840;37.574;2022-12-08T23:09:34;34.53;;;14.60;;
76675;SDS011;65593;55.840;37.574;2022-12-08T23:14:35;33.73;;;15.10;;
76675;SDS011;65593;55.840;37.574;2022-12-08T23:19:35;40.13;;;15.88;;
76675;SDS011;65593;55.840;37.574;2022-12-08T23:24:36;33.67;;;15.17;;
76675;SDS011;65593;55.840;37.574;2022-12-08T23:29:39;37.67;;;15.83;;
76675;SDS011;65593;55.840;37.574;2022-12-08T23:34:40;41.67;;;17.50;;
76675;SDS011;65593;55.840;37.574;2022-12-08T23:39:41;38.43;;;15.83;;
76675;SDS011;65593;55.840;37.574;2022-12-08T23:44:41;37.03;;;17.13;;
76675;SDS011;65593;55.840;37.574;2022-12-08T23:49:42;43.63;;;18.57;;
76675;SDS011;65593;55.840;37.574;2022-12-08T23:54:42;47.90;;;18.53;;
76675;SDS011;65593;55.840;37.574;2022-12-08T23:59:44;43.38;;;17.30;;
